Time;durP1;ratioP1;P1;durP2;ratioP2;P2;SDS_P1;SDS_P2;PMS_P1;PMS_P2;Temp;Humidity;BMP_temperature;BMP_pressure;BME280_temperature;BME280_humidity;BME280_pressure;Samples;Min_cycle;Max_cycle;Signal;HPM_P1;HPM_P2
2022/03/18 00:00:35;;;;;;;38.00;17.70;;;;;;;2.20;37.96;100502.78;107444;1285;22620;-73
2022/03/18 00:03:03;;;;;;;34.80;16.40;;;;;;;2.17;37.96;100501.23;107450;1285;22577;-77
2022/03/18 00:05:32;;;;;;;37.80;18.10;;;;;;;2.14;37.79;100505.70;107434;1284;22582;-75
2022/03/18 00:07:59;;;;;;;35.50;15.90;;;;;;;2.12;37.83;100509.33;107414;1285;24307;-78
2022/03/18 00:10:27;;;;;;;27.80;13.60;;;;;;;2.10;37.96;100511.56;107410;1285;22633;-74
2022/03/18 00:12:54;;;;;;;28.80;12.30;;;;;;;2.07;37.92;100514.31;107399;1285;22544;-73
2022/03/18 00:15:23;;;;;;;29.60;14.10;;;;;;;2.06;38.10;100516.04;107431;1285;22564;-76
2022/03/18 00:17:51;;;;;;;24.50;10.90;;;;;;;2.03;38.07;100516.73;107427;1285;22713;-72
2022/03/18 00:20:19;;;;;;;28.00;13.30;;;;;;;2.02;38.06;100519.82;107612;1285;22682;-76
2022/03/18 00:22:47;;;;;;;31.10;13.60;;;;;;;1.99;38.10;100528.92;107423;1285;22576;-72
2022/03/18 00:25:16;;;;;;;31.40;14.20;;;;;;;1.98;38.15;100530.30;107833;1284;22719;-72
2022/03/18 00:27:44;;;;;;;47.60;19.50;;;;;;;1.96;38.24;100529.62;107470;1285;22557;-72
2022/03/18 00:30:14;;;;;;;37.70;14.40;;;;;;;1.93;38.40;100532.88;107465;1284;22646;-72
2022/03/18 00:32:43;;;;;;;38.20;15.00;;;;;;;1.91;38.25;100533.21;107197;1285;23067;-71
2022/03/18 00:35:10;;;;;;;33.20;13.90;;;;;;;1.89;38.42;100532.18;107406;1285;25433;-72
2022/03/18 00:37:38;;;;;;;36.80;15.10;;;;;;;1.87;38.55;100528.08;107455;1285;26884;-72
2022/03/18 00:40:07;;;;;;;38.50;14.80;;;;;;;1.84;38.54;100527.55;107206;1285;24369;-73
2022/03/18 00:42:34;;;;;;;29.10;13.40;;;;;;;1.80;38.70;100526.17;107441;1284;22784;-72
2022/03/18 00:45:04;;;;;;;37.60;14.90;;;;;;;1.76;38.75;100526.02;107462;1284;22553;-72
2022/03/18 00:53:04;;;;;;;48.30;19.80;;;;;;;1.65;39.03;100523.25;107445;1284;24455;-74
2022/03/18 00:55:31;;;;;;;46.40;18.80;;;;;;;1.62;38.94;100519.13;107363;1285;22566;-74
2022/03/18 00:57:58;;;;;;;51.00;18.40;;;;;;;1.58;39.03;100521.36;107199;1285;25352;-74
2022/03/18 01:00:25;;;;;;;45.90;16.70;;;;;;;1.55;39.21;100528.20;107477;1284;22597;-74
2022/03/18 01:02:52;;;;;;;45.20;17.10;;;;;;;1.52;39.37;100522.38;107513;1284;22558;-73
2022/03/18 01:05:19;;;;;;;39.10;15.90;;;;;;;1.47;39.43;100526.66;107481;1284;22695;-75
2022/03/18 01:07:46;;;;;;;47.90;16.10;;;;;;;1.44;39.50;100526.32;107612;1284;22596;-73
2022/03/18 01:10:14;;;;;;;38.50;15.50;;;;;;;1.41;39.56;100526.14;107728;1284;24283;-75
2022/03/18 01:12:41;;;;;;;44.60;18.40;;;;;;;1.38;39.60;100523.73;107783;1284;22588;-73
2022/03/18 01:15:08;;;;;;;65.60;26.20;;;;;;;1.34;39.75;100520.80;107753;1284;22647;-74
2022/03/18 01:17:35;;;;;;;48.30;19.80;;;;;;;1.29;39.90;100521.48;107656;1284;23005;-83
2022/03/18 01:20:03;;;;;;;58.80;21.30;;;;;;;1.27;40.03;100519.75;107476;1284;23019;-79
2022/03/18 01:22:30;;;;;;;57.00;18.20;;;;;;;1.23;40.23;100516.49;107482;1284;22629;-77
2022/03/18 01:24:57;;;;;;;38.00;14.90;;;;;;;1.20;40.33;100513.55;107456;1284;22743;-72
2022/03/18 01:27:24;;;;;;;39.20;15.00;;;;;;;1.15;40.47;100508.41;107477;1284;22662;-76
2022/03/18 01:29:51;;;;;;;37.50;13.20;;;;;;;1.11;40.61;100510.45;107450;1284;22567;-79
2022/03/18 01:32:18;;;;;;;40.30;13.40;;;;;;;1.08;40.76;100501.67;107505;1284;22683;-71
2022/03/18 01:34:46;;;;;;;32.70;13.90;;;;;;;1.07;40.84;100501.52;107203;1285;24245;-72
2022/03/18 01:37:13;;;;;;;35.10;15.60;;;;;;;1.05;40.96;100500.83;107488;1284;22722;-71
2022/03/18 01:39:40;;;;;;;47.20;17.70;;;;;;;1.02;41.01;100504.92;107484;1284;25292;-71
2022/03/18 01:42:07;;;;;;;38.40;14.70;;;;;;;0.99;41.05;100505.60;107181;1284;23504;-72
2022/03/18 01:44:42;;;;;;;34.00;14.10;;;;;;;0.98;41.17;100507.15;107339;1284;236084;-72
2022/03/18 01:47:10;;;;;;;32.60;13.10;;;;;;;0.97;41.17;100508.88;107499;1284;22601;-83
2022/03/18 01:49:38;;;;;;;31.60;12.80;;;;;;;0.96;41.25;100508.70;107476;1284;25265;-78
2022/03/18 01:52:08;;;;;;;32.80;12.60;;;;;;;0.95;41.33;100506.97;107496;1284;22551;-72
2022/03/18 01:54:47;;;;;;;31.20;12.30;;;;;;;0.92;41.39;100505.06;107461;1284;22875;-78
2022/03/18 01:57:18;;;;;;;38.00;16.70;;;;;;;0.88;41.53;100509.02;107510;1284;22584;-79
2022/03/18 01:59:50;;;;;;;34.20;16.80;;;;;;;0.86;41.53;100512.59;107495;1284;22580;-72
2022/03/18 02:02:18;;;;;;;31.80;14.10;;;;;;;0.84;41.40;100514.13;107500;1284;22605;-72
2022/03/18 02:04:46;;;;;;;35.20;13.40;;;;;;;0.82;41.64;100516.00;107491;1284;22560;-72
2022/03/18 02:07:15;;;;;;;35.60;11.30;;;;;;;0.80;41.65;100516.86;107469;1284;22631;-72
2022/03/18 02:09:43;;;;;;;27.90;12.40;;;;;;;0.79;41.62;100516.34;107244;1285;22639;-72
2022/03/18 02:12:11;;;;;;;33.50;12.80;;;;;;;0.76;41.56;100516.33;107509;1284;22623;-72
2022/03/18 02:14:43;;;;;;;30.60;15.20;;;;;;;0.75;41.59;100519.06;107507;1284;22584;-72
2022/03/18 02:17:13;;;;;;;28.00;12.90;;;;;;;0.75;41.64;100521.29;107466;1283;25772;-73
2022/03/18 02:19:42;;;;;;;34.20;14.10;;;;;;;0.75;41.60;100521.63;107498;1284;25402;-75
2022/03/18 02:22:18;;;;;;;28.80;11.80;;;;;;;0.74;41.52;100521.45;107522;1284;22573;-74
2022/03/18 02:24:47;;;;;;;27.70;12.80;;;;;;;0.75;41.62;100523.52;107502;1284;22594;-78
2022/03/18 02:27:14;;;;;;;25.80;12.40;;;;;;;0.73;41.68;100525.40;107481;1284;22613;-74
2022/03/18 02:29:43;;;;;;;23.20;10.90;;;;;;;0.72;41.71;100524.19;107472;1284;23138;-75
2022/03/18 02:32:11;;;;;;;19.40;9.80;;;;;;;0.70;41.64;100525.74;107485;1284;22629;-76
2022/03/18 02:34:39;;;;;;;25.40;12.70;;;;;;;0.70;41.61;100529.52;107476;1284;22890;-78
2022/03/18 02:37:08;;;;;;;26.70;12.20;;;;;;;0.68;41.76;100534.98;107493;1283;22633;-72
2022/03/18 02:39:35;;;;;;;24.70;11.30;;;;;;;0.66;41.74;100537.71;107524;1284;22548;-73
2022/03/18 02:42:04;;;;;;;31.80;13.50;;;;;;;0.64;41.66;100544.72;107466;1284;22809;-75
2022/03/18 02:44:32;;;;;;;24.20;11.80;;;;;;;0.64;41.79;100552.09;107492;1284;22727;-76
2022/03/18 02:46:59;;;;;;;26.80;12.70;;;;;;;0.62;41.90;100548.85;107209;1285;22619;-73
2022/03/18 02:49:26;;;;;;;29.30;11.60;;;;;;;0.62;41.85;100549.18;107244;1285;22554;-73
2022/03/18 02:51:53;;;;;;;23.80;11.90;;;;;;;0.60;41.92;100552.10;107515;1284;22722;-78
2022/03/18 02:54:20;;;;;;;29.20;13.60;;;;;;;0.58;41.96;100552.59;107511;1284;22568;-74
2022/03/18 02:56:48;;;;;;;26.40;13.10;;;;;;;0.57;42.17;100556.87;107528;1284;26280;-75
2022/03/18 02:59:15;;;;;;;30.50;14.50;;;;;;;0.54;42.20;100556.85;107188;1285;22678;-79
2022/03/18 03:01:43;;;;;;;29.40;13.30;;;;;;;0.53;42.37;100557.88;107507;1284;22565;-77
2022/03/18 03:04:13;;;;;;;29.20;13.80;;;;;;;0.51;42.34;100562.50;107217;1285;22627;-74
2022/03/18 03:09:25;;;;;;;26.90;12.40;;;;;;;0.48;42.48;100557.33;107522;1284;24110;-71
2022/03/18 03:11:52;;;;;;;29.30;13.40;;;;;;;0.46;42.52;100561.09;107530;1284;22566;-79
2022/03/18 03:14:20;;;;;;;25.30;13.40;;;;;;;0.44;42.62;100562.27;107487;1284;22555;-78
2022/03/18 03:16:47;;;;;;;36.90;15.30;;;;;;;0.43;42.60;100563.48;107503;1284;22555;-80
2022/03/18 03:19:14;;;;;;;26.70;12.50;;;;;;;0.42;42.68;100568.10;107468;1284;22689;-72
2022/03/18 03:21:41;;;;;;;24.30;12.10;;;;;;;0.40;42.77;100568.41;107499;1284;22569;-80
2022/03/18 03:24:08;;;;;;;31.10;13.60;;;;;;;0.36;42.75;100569.77;107538;1284;22584;-72
2022/03/18 03:26:35;;;;;;;29.00;13.30;;;;;;;0.33;42.98;100571.13;107234;1285;22576;-71
2022/03/18 03:29:03;;;;;;;27.20;14.10;;;;;;;0.32;43.00;100573.86;107221;1285;22733;-80
2022/03/18 03:31:30;;;;;;;25.70;12.70;;;;;;;0.29;43.24;100572.96;107218;1285;22633;-71
2022/03/18 03:33:58;;;;;;;35.50;16.30;;;;;;;0.25;43.32;100577.23;107524;1284;22556;-71
2022/03/18 03:36:25;;;;;;;33.90;15.80;;;;;;;0.23;43.27;100582.20;107520;1284;22686;-72
2022/03/18 03:38:52;;;;;;;29.80;13.60;;;;;;;0.21;43.53;100582.69;107529;1285;22560;-72
2022/03/18 03:41:21;;;;;;;30.30;13.80;;;;;;;0.18;43.60;100583.34;107483;1285;23290;-72
2022/03/18 03:43:49;;;;;;;30.00;12.90;;;;;;;0.16;43.76;100587.29;107475;1285;22551;-71
2022/03/18 03:46:17;;;;;;;28.60;13.60;;;;;;;0.13;43.87;100592.55;107485;1285;24457;-73
2022/03/18 03:48:44;;;;;;;23.50;12.30;;;;;;;0.11;43.85;100598.71;107220;1285;25402;-79
2022/03/18 03:51:11;;;;;;;24.70;12.40;;;;;;;0.09;43.89;100600.92;107530;1285;22673;-71
2022/03/18 03:53:38;;;;;;;23.70;11.80;;;;;;;0.06;44.04;100596.11;107475;1285;22638;-73
2022/03/18 03:56:05;;;;;;;30.20;13.80;;;;;;;0.03;43.90;100600.86;107488;1285;22573;-72
2022/03/18 03:58:32;;;;;;;26.80;12.50;;;;;;;0.02;44.03;100606.67;107506;1285;25847;-71
2022/03/18 04:00:59;;;;;;;25.20;13.40;;;;;;;0.01;44.26;100605.64;107526;1285;23385;-71
2022/03/18 04:03:28;;;;;;;26.40;12.10;;;;;;;-0.02;44.14;100609.23;107506;1285;24457;-71
2022/03/18 04:05:55;;;;;;;21.30;10.70;;;;;;;-0.03;44.26;100609.73;107208;1285;22875;-73
2022/03/18 04:08:22;;;;;;;28.40;13.80;;;;;;;-0.07;44.38;100610.54;107465;1285;22557;-74
2022/03/18 04:10:49;;;;;;;29.00;13.80;;;;;;;-0.08;44.43;100611.56;107494;1285;22707;-74
2022/03/18 04:13:16;;;;;;;28.70;13.80;;;;;;;-0.11;44.50;100613.44;107491;1285;24248;-72
2022/03/18 04:15:43;;;;;;;23.20;12.00;;;;;;;-0.12;44.58;100613.59;107534;1284;23121;-72
2022/03/18 04:18:10;;;;;;;22.00;11.40;;;;;;;-0.15;44.64;100614.40;107206;1285;25557;-72
2022/03/18 04:20:37;;;;;;;31.30;13.20;;;;;;;-0.18;44.89;100613.86;107474;1285;22556;-72
2022/03/18 04:23:04;;;;;;;24.50;11.70;;;;;;;-0.22;44.91;100616.73;107494;1285;25326;-76
2022/03/18 04:25:31;;;;;;;31.30;13.10;;;;;;;-0.24;45.07;100616.02;107553;1285;23187;-72
2022/03/18 04:27:59;;;;;;;29.60;13.40;;;;;;;-0.26;45.25;100616.70;107538;1285;22584;-72
2022/03/18 04:30:26;;;;;;;27.30;13.10;;;;;;;-0.29;45.19;100621.47;107181;1285;22633;-72
2022/03/18 04:32:54;;;;;;;37.30;16.00;;;;;;;-0.31;45.51;100627.77;107497;1285;22553;-71
2022/03/18 04:35:21;;;;;;;30.40;14.10;;;;;;;-0.35;45.52;100630.30;107481;1285;25231;-77
2022/03/18 04:37:49;;;;;;;36.70;14.40;;;;;;;-0.36;45.62;100635.61;107515;1285;22689;-76
2022/03/18 04:40:16;;;;;;;33.00;16.10;;;;;;;-0.39;45.57;100643.80;107518;1285;22752;-71
2022/03/18 04:42:47;;;;;;;44.80;18.60;;;;;;;-0.39;45.54;100649.61;107480;1285;22723;-72
2022/03/18 04:45:14;;;;;;;32.30;14.40;;;;;;;-0.39;45.60;100647.56;107498;1285;23192;-71
2022/03/18 04:47:41;;;;;;;36.80;17.10;;;;;;;-0.38;45.60;100646.89;107485;1285;22576;-70
2022/03/18 04:50:09;;;;;;;42.80;19.00;;;;;;;-0.38;45.73;100647.57;107201;1285;22710;-71
2022/03/18 04:52:36;;;;;;;33.40;16.20;;;;;;;-0.40;45.78;100650.97;107257;1285;22548;-72
2022/03/18 04:55:05;;;;;;;41.80;19.50;;;;;;;-0.40;45.86;100651.99;107490;1285;22675;-74
2022/03/18 04:57:32;;;;;;;34.00;15.50;;;;;;;-0.41;45.87;100653.88;107515;1284;22572;-71
2022/03/18 04:59:59;;;;;;;29.60;12.80;;;;;;;-0.40;45.86;100655.25;107522;1285;22550;-71
2022/03/18 05:02:26;;;;;;;32.60;14.10;;;;;;;-0.42;46.08;100657.10;107493;1285;22595;-70
2022/03/18 05:04:54;;;;;;;31.40;14.60;;;;;;;-0.45;46.19;100654.85;107227;1285;22975;-72
2022/03/18 05:07:21;;;;;;;29.70;14.20;;;;;;;-0.46;46.28;100654.67;107492;1285;22569;-72
2022/03/18 05:09:49;;;;;;;28.20;12.30;;;;;;;-0.48;46.31;100658.94;107459;1285;22706;-72
2022/03/18 05:12:17;;;;;;;27.90;12.60;;;;;;;-0.47;46.35;100664.08;107221;1285;24480;-71
2022/03/18 05:14:44;;;;;;;68.50;29.80;;;;;;;-0.45;46.40;100668.38;107571;1285;25375;-72
2022/03/18 05:17:12;;;;;;;53.40;22.60;;;;;;;-0.46;46.42;100670.08;107498;1285;22559;-72
2022/03/18 05:19:39;;;;;;;46.40;23.80;;;;;;;-0.45;46.47;100670.77;107792;1285;22556;-74
2022/03/18 05:22:07;;;;;;;39.40;19.90;;;;;;;-0.45;46.38;100670.25;107835;1284;22713;-71
2022/03/18 05:24:35;;;;;;;38.50;18.80;;;;;;;-0.45;46.46;100670.94;107800;1285;22544;-72
2022/03/18 05:27:03;;;;;;;32.50;17.00;;;;;;;-0.44;46.39;100671.63;107757;1285;26518;-70
2022/03/18 05:29:31;;;;;;;32.60;15.70;;;;;;;-0.42;46.46;100674.91;107775;1285;22575;-74
2022/03/18 05:32:00;;;;;;;33.20;16.60;;;;;;;-0.41;46.44;100677.83;107763;1285;22570;-72
2022/03/18 05:34:28;;;;;;;46.90;21.10;;;;;;;-0.40;46.61;100676.14;107753;1284;22564;-70
2022/03/18 05:36:55;;;;;;;45.10;19.50;;;;;;;-0.41;46.57;100674.41;107777;1284;22559;-72
2022/03/18 05:39:22;;;;;;;54.30;23.80;;;;;;;-0.40;46.61;100676.30;107777;1284;22638;-70
2022/03/18 05:41:49;;;;;;;43.10;19.70;;;;;;;-0.39;46.61;100675.46;107778;1284;25394;-71
2022/03/18 05:44:17;;;;;;;54.20;25.40;;;;;;;-0.39;46.65;100678.55;107796;1284;22544;-72
2022/03/18 05:46:45;;;;;;;41.70;19.30;;;;;;;-0.37;46.85;100681.30;107769;1284;22574;-71
2022/03/18 05:49:12;;;;;;;33.00;17.60;;;;;;;-0.37;46.85;100687.14;107768;1284;22711;-72
2022/03/18 05:51:40;;;;;;;33.00;16.60;;;;;;;-0.34;46.81;100689.89;107759;1283;22552;-85
2022/03/18 05:54:07;;;;;;;45.60;20.50;;;;;;;-0.29;46.81;100689.27;107610;1284;22615;-71
2022/03/18 05:56:53;;;;;;;33.30;15.90;;;;;;;-0.27;46.78;100695.28;107478;1284;22559;-72
2022/03/18 05:59:27;;;;;;;41.30;17.30;;;;;;;-0.25;46.98;100699.24;107480;1284;22548;-72
2022/03/18 06:01:57;;;;;;;41.70;17.10;;;;;;;-0.22;46.99;100698.75;107525;1284;22629;-72
2022/03/18 06:04:25;;;;;;;49.40;21.90;;;;;;;-0.20;46.98;100704.96;107514;1284;26254;-72
2022/03/18 06:06:53;;;;;;;45.50;19.00;;;;;;;-0.16;47.02;100706.70;107840;1284;22550;-72
2022/03/18 06:12:07;;;;;;;36.90;18.10;;;;;;;-0.06;47.02;100712.81;107500;1284;23305;-72
2022/03/18 06:14:34;;;;;;;39.90;19.00;;;;;;;-0.01;46.94;100710.98;107501;1284;24310;-72
2022/03/18 06:17:04;;;;;;;35.90;17.90;;;;;;;0.03;46.95;100717.35;107537;1284;22596;-72
2022/03/18 06:19:32;;;;;;;31.80;16.50;;;;;;;0.08;46.92;100718.27;107553;1284;24226;-71
2022/03/18 06:21:59;;;;;;;34.50;16.60;;;;;;;0.12;46.92;100720.70;107258;1285;24274;-72
2022/03/18 06:24:28;;;;;;;34.60;17.10;;;;;;;0.17;46.88;100724.35;107245;1285;22550;-72
2022/03/18 06:26:56;;;;;;;40.00;19.10;;;;;;;0.22;46.83;100728.86;107560;1284;23240;-72
2022/03/18 06:29:24;;;;;;;41.00;18.70;;;;;;;0.26;46.73;100725.31;107517;1284;22713;-72
2022/03/18 06:31:51;;;;;;;43.20;22.70;;;;;;;0.32;46.75;100728.28;107555;1284;22610;-73
2022/03/18 06:34:20;;;;;;;32.50;17.90;;;;;;;0.41;46.74;100730.08;107468;1284;22558;-73
2022/03/18 06:36:52;;;;;;;30.00;16.20;;;;;;;0.48;46.73;100727.72;107517;1284;26711;-72
2022/03/18 06:39:22;;;;;;;33.50;16.30;;;;;;;0.54;46.63;100732.58;107306;1285;22549;-78
2022/03/18 06:41:49;;;;;;;39.00;18.60;;;;;;;0.61;46.41;100740.70;107553;1284;25288;-77
2022/03/18 06:44:16;;;;;;;31.80;15.60;;;;;;;0.67;46.35;100742.30;107294;1284;22598;-75
2022/03/18 06:46:43;;;;;;;34.70;17.30;;;;;;;0.75;46.41;100748.71;107510;1284;22596;-72
2022/03/18 06:49:10;;;;;;;41.00;17.90;;;;;;;0.80;46.27;100744.64;107204;1284;25284;-76
2022/03/18 06:51:37;;;;;;;30.40;14.90;;;;;;;0.91;46.28;100744.70;107485;1284;23942;-78
2022/03/18 06:54:04;;;;;;;33.70;17.70;;;;;;;0.99;46.22;100747.34;107483;1284;22564;-77
2022/03/18 06:56:32;;;;;;;35.80;17.50;;;;;;;1.09;46.13;100747.77;107532;1284;23423;-74
2022/03/18 06:59:00;;;;;;;35.10;17.00;;;;;;;1.22;45.81;100745.63;107465;1284;23301;-77
2022/03/18 07:01:27;;;;;;;30.60;16.00;;;;;;;1.33;45.55;100751.69;107483;1284;24246;-72
2022/03/18 07:03:54;;;;;;;32.70;14.90;;;;;;;1.38;45.15;100753.94;107463;1284;22675;-79
2022/03/18 07:06:21;;;;;;;28.20;13.70;;;;;;;1.41;44.89;100750.88;107472;1284;24466;-71
2022/03/18 07:08:48;;;;;;;34.70;16.00;;;;;;;1.48;45.11;100753.15;107470;1284;23518;-77
2022/03/18 07:11:15;;;;;;;35.70;15.30;;;;;;;1.62;44.89;100756.30;107434;1284;22746;-79
2022/03/18 07:13:43;;;;;;;37.50;17.60;;;;;;;1.72;44.85;100756.34;107464;1284;22568;-72
2022/03/18 07:18:56;;;;;;;28.30;13.60;;;;;;;1.93;44.27;100759.88;107452;1284;22588;-70
2022/03/18 07:21:23;;;;;;;27.20;14.60;;;;;;;2.02;44.16;100761.61;107445;1284;22578;-71
2022/03/18 07:23:50;;;;;;;34.30;17.10;;;;;;;2.09;44.03;100763.87;107440;1284;22550;-70
2022/03/18 07:26:18;;;;;;;28.70;14.10;;;;;;;2.15;43.96;100765.79;107432;1284;27862;-72
2022/03/18 07:28:45;;;;;;;37.50;16.00;;;;;;;2.25;44.04;100766.15;107443;1284;22516;-71
2022/03/18 07:31:13;;;;;;;35.90;17.20;;;;;;;2.40;43.59;100769.95;107449;1284;22646;-77
2022/03/18 07:33:40;;;;;;;35.40;18.10;;;;;;;2.47;43.18;100771.17;107475;1284;22586;-86
2022/03/18 07:36:07;;;;;;;38.00;19.50;;;;;;;2.52;43.08;100771.18;107407;1285;22716;-75
2022/03/18 07:38:34;;;;;;;34.40;16.40;;;;;;;2.59;42.88;100773.59;107471;1284;22557;-77
2022/03/18 07:41:01;;;;;;;27.20;14.80;;;;;;;2.63;42.48;100777.38;107457;1285;22589;-77
2022/03/18 07:43:28;;;;;;;27.00;14.80;;;;;;;2.73;42.29;100782.38;107469;1285;22782;-78
2022/03/18 07:45:55;;;;;;;32.80;17.80;;;;;;;2.73;41.95;100779.11;107461;1285;25436;-81
2022/03/18 07:48:26;;;;;;;31.10;16.00;;;;;;;2.77;41.89;100780.15;107482;1285;22640;-74
2022/03/18 07:50:54;;;;;;;34.30;16.50;;;;;;;2.73;41.77;100780.66;107440;1285;22742;-71
2022/03/18 07:53:21;;;;;;;29.30;17.10;;;;;;;2.82;42.40;100783.59;107433;1285;22584;-79
2022/03/18 07:55:48;;;;;;;40.00;20.00;;;;;;;2.96;41.99;100783.25;107480;1285;22610;-77
2022/03/18 07:58:15;;;;;;;38.40;19.60;;;;;;;3.06;42.12;100783.42;107478;1284;22579;-81
2022/03/18 08:00:43;;;;;;;57.30;23.10;;;;;;;3.21;42.18;100784.61;107427;1285;25428;-85
2022/03/18 08:03:11;;;;;;;70.80;29.20;;;;;;;3.41;41.53;100786.30;107841;1285;22551;-78
2022/03/18 08:05:39;;;;;;;42.40;19.10;;;;;;;3.49;41.54;100790.94;107408;1285;22555;-76
2022/03/18 08:08:06;;;;;;;33.10;17.30;;;;;;;3.65;41.48;100794.86;107451;1285;22565;-81
2022/03/18 08:10:34;;;;;;;37.00;17.50;;;;;;;3.78;41.16;100792.92;107451;1285;24426;-73
2022/03/18 08:13:01;;;;;;;45.70;20.10;;;;;;;3.91;41.31;100790.45;107422;1285;24045;-84
2022/03/18 08:15:29;;;;;;;39.70;17.60;;;;;;;4.09;41.29;100792.63;107477;1285;22554;-78
2022/03/18 08:17:57;;;;;;;45.60;20.70;;;;;;;4.24;41.20;100796.52;107429;1285;22635;-71
2022/03/18 08:20:25;;;;;;;57.90;23.20;;;;;;;4.37;40.80;100802.30;107491;1285;22557;-73
2022/03/18 08:22:53;;;;;;;41.30;20.30;;;;;;;4.41;40.77;100808.66;107470;1285;22557;-71
2022/03/18 08:25:20;;;;;;;41.80;20.70;;;;;;;4.53;40.31;100809.12;107439;1285;22791;-72
2022/03/18 08:27:49;;;;;;;48.50;23.30;;;;;;;4.57;39.99;100816.68;107440;1285;24238;-73
2022/03/18 08:30:17;;;;;;;42.40;19.80;;;;;;;4.52;39.40;100813.45;107458;1285;22726;-73
2022/03/18 08:32:45;;;;;;;46.10;21.00;;;;;;;4.52;39.80;100815.85;107547;1285;22585;-71
2022/03/18 08:35:13;;;;;;;40.10;19.00;;;;;;;4.54;39.89;100817.73;107505;1285;24374;-72
2022/03/18 08:37:58;;;;;;;32.70;18.20;;;;;;;4.57;39.81;100817.71;107488;1285;22579;-73
2022/03/18 08:40:33;;;;;;;35.80;19.00;;;;;;;4.63;39.59;100823.73;107704;1285;22782;-72
2022/03/18 08:43:04;;;;;;;37.10;19.40;;;;;;;4.64;39.58;100823.21;107733;1285;22550;-78
2022/03/18 08:45:34;;;;;;;41.90;21.60;;;;;;;4.73;39.14;100824.17;107713;1285;22672;-76
2022/03/18 08:48:06;;;;;;;34.90;19.00;;;;;;;4.65;38.87;100826.83;107719;1285;22541;-88
2022/03/18 08:50:34;;;;;;;33.50;17.30;;;;;;;4.64;39.44;100829.59;107744;1285;22544;-83
2022/03/18 08:53:04;;;;;;;58.30;27.30;;;;;;;4.68;38.90;100833.88;107674;1285;22567;-72
2022/03/18 08:55:32;;;;;;;55.90;24.90;;;;;;;4.72;39.39;100836.79;107656;1284;22638;-80
2022/03/18 08:57:59;;;;;;;50.30;25.50;;;;;;;4.80;39.26;100841.39;107689;1285;22661;-78
2022/03/18 09:00:26;;;;;;;38.00;19.80;;;;;;;4.85;39.14;100842.21;107547;1285;22610;-82
2022/03/18 09:02:53;;;;;;;33.80;19.60;;;;;;;4.93;38.92;100847.50;107722;1285;22537;-72
2022/03/18 09:05:20;;;;;;;40.20;20.30;;;;;;;4.84;38.78;100852.92;107721;1285;22553;-83
2022/03/18 09:07:47;;;;;;;43.60;22.60;;;;;;;4.84;38.68;100852.58;107679;1285;22835;-72
2022/03/18 09:10:14;;;;;;;54.90;25.10;;;;;;;4.74;39.18;100854.54;107728;1285;22629;-79
2022/03/18 09:12:51;;;;;;;65.30;29.00;;;;;;;4.76;39.13;100856.07;107713;1285;22573;-72
2022/03/18 09:15:18;;;;;;;77.30;33.30;;;;;;;4.82;39.26;100859.86;107732;1283;24276;-84
2022/03/18 09:17:45;;;;;;;57.30;27.90;;;;;;;4.87;39.18;100865.33;107708;1284;22632;-75
2022/03/18 09:20:13;;;;;;;63.60;32.70;;;;;;;4.87;39.05;100867.06;107727;1285;22612;-79
2022/03/18 09:22:40;;;;;;;41.70;20.80;;;;;;;4.90;38.79;100865.84;107751;1285;22537;-81
2022/03/18 09:25:09;;;;;;;42.30;21.90;;;;;;;4.85;39.03;100867.77;107723;1285;22558;-74
2022/03/18 09:27:36;;;;;;;43.70;21.30;;;;;;;4.83;39.15;100870.71;107707;1284;22549;-82
2022/03/18 09:30:04;;;;;;;38.30;19.30;;;;;;;4.85;39.28;100876.05;107710;1284;22563;-72
2022/03/18 09:32:31;;;;;;;44.00;21.10;;;;;;;4.87;39.12;100879.32;107698;1284;22578;-78
2022/03/18 09:34:59;;;;;;;42.00;22.00;;;;;;;4.94;39.14;100883.23;107704;1284;27571;-80
2022/03/18 09:37:26;;;;;;;43.70;22.90;;;;;;;5.00;38.93;100885.62;107706;1284;25578;-76
2022/03/18 09:39:53;;;;;;;36.10;19.10;;;;;;;4.98;39.07;100891.33;107677;1284;22563;-72
2022/03/18 09:42:21;;;;;;;32.70;18.00;;;;;;;4.96;38.83;100886.86;107708;1284;22545;-72
2022/03/18 09:44:48;;;;;;;53.10;28.80;;;;;;;4.90;39.12;100891.39;107708;1285;22613;-79
2022/03/18 09:47:16;;;;;;;46.60;26.50;;;;;;;4.90;39.26;100889.33;107710;1284;22583;-77
2022/03/18 09:49:45;;;;;;;41.00;23.00;;;;;;;4.94;39.33;100891.18;107721;1284;22665;-74
2022/03/18 09:52:14;;;;;;;41.00;20.90;;;;;;;5.03;39.42;100895.43;107730;1284;23943;-72
2022/03/18 09:54:41;;;;;;;37.60;19.30;;;;;;;5.08;39.49;100896.98;107441;1285;22548;-74
2022/03/18 09:57:09;;;;;;;38.80;21.30;;;;;;;5.08;39.55;100897.14;107712;1284;22573;-76
2022/03/18 09:59:37;;;;;;;42.00;23.00;;;;;;;5.07;39.54;100901.13;107706;1285;22686;-81
2022/03/18 10:02:23;;;;;;;45.80;23.00;;;;;;;5.05;39.36;100901.48;107714;1285;22715;-85
2022/03/18 10:05:01;;;;;;;52.60;24.00;;;;;;;5.08;39.74;100900.25;107713;1284;22631;-85
2022/03/18 10:07:29;;;;;;;69.50;30.20;;;;;;;5.15;39.63;100903.13;107699;1284;22572;-86
2022/03/18 10:10:07;;;;;;;39.70;20.90;;;;;;;5.21;39.63;100905.34;107698;1285;22558;-73
2022/03/18 10:12:36;;;;;;;42.50;20.60;;;;;;;5.22;39.39;100906.02;107741;1284;22549;-90
2022/03/18 10:15:12;;;;;;;38.30;21.30;;;;;;;5.25;39.34;100905.83;107713;1284;22683;-88
2022/03/18 10:17:51;;;;;;;30.00;17.50;;;;;;;5.28;39.61;100904.59;107709;1284;22590;-86
2022/03/18 10:20:32;;;;;;;33.80;17.40;;;;;;;5.33;39.47;100900.23;107710;1284;22580;-82
2022/03/18 10:23:21;;;;;;;76.10;39.00;;;;;;;5.41;39.43;100896.53;107699;1284;22544;-78
2022/03/18 10:25:58;;;;;;;47.20;23.00;;;;;;;5.52;39.70;100898.34;107714;1284;24315;-80
2022/03/18 10:28:37;;;;;;;32.10;16.80;;;;;;;5.65;39.37;100896.50;107735;1284;22550;-73
2022/03/18 10:31:21;;;;;;;29.20;16.30;;;;;;;5.74;39.46;100896.92;107718;1284;22563;-73
2022/03/18 10:37:07;;;;;;;30.90;16.50;;;;;;;5.93;39.07;100894.34;107677;1284;22640;-75
2022/03/18 10:39:40;;;;;;;28.80;16.50;;;;;;;6.02;38.55;100895.46;107699;1284;22538;-73
2022/03/18 10:42:12;;;;;;;27.90;16.00;;;;;;;6.01;38.18;100898.77;107716;1284;24291;-84
2022/03/18 10:45:00;;;;;;;33.30;15.60;;;;;;;6.01;38.59;100897.71;107709;1284;22607;-81
2022/03/18 10:47:39;;;;;;;29.10;15.40;;;;;;;6.05;38.05;100900.28;107709;1284;22580;-78
2022/03/18 10:50:29;;;;;;;32.80;16.50;;;;;;;6.05;37.84;100897.34;107695;1284;24277;-79
2022/03/18 10:52:59;;;;;;;27.90;13.70;;;;;;;6.01;37.99;100897.55;107691;1284;24242;-80
2022/03/18 10:55:31;;;;;;;26.40;14.20;;;;;;;6.09;37.92;100894.70;107701;1284;22639;-80
2022/03/18 10:58:01;;;;;;;26.90;14.10;;;;;;;6.13;37.88;100890.33;107706;1284;22888;-81
2022/03/18 11:00:33;;;;;;;32.30;16.40;;;;;;;6.18;37.77;100890.27;107700;1284;25262;-78
2022/03/18 11:03:02;;;;;;;28.50;15.20;;;;;;;6.24;37.96;100893.15;107706;1284;22609;-74
2022/03/18 11:05:34;;;;;;;30.00;15.30;;;;;;;6.29;37.86;100896.36;107409;1285;22636;-79
2022/03/18 11:08:04;;;;;;;33.20;17.80;;;;;;;6.36;37.75;100893.51;107706;1284;22544;-75
2022/03/18 11:13:27;;;;;;;31.10;15.00;;;;;;;6.53;37.56;100896.06;107692;1285;22665;-87
2022/03/18 11:15:55;;;;;;;40.20;17.90;;;;;;;6.61;37.62;100891.63;107683;1284;22566;-74
2022/03/18 11:18:29;;;;;;;34.30;18.00;;;;;;;6.68;37.33;100896.05;107721;1285;22564;-74
2022/03/18 11:20:57;;;;;;;29.80;16.90;;;;;;;6.73;36.96;100893.03;107703;1285;22554;-74
2022/03/18 11:23:25;;;;;;;29.90;16.40;;;;;;;6.77;37.34;100887.44;107708;1285;22599;-74
2022/03/18 11:25:55;;;;;;;42.20;22.40;;;;;;;6.87;37.31;100888.17;107722;1285;22588;-83
2022/03/18 11:28:22;;;;;;;33.90;17.70;;;;;;;6.98;36.89;100893.37;107705;1285;25520;-86
2022/03/18 11:31:01;;;;;;;32.20;17.30;;;;;;;7.05;36.73;100892.59;107695;1285;22662;-86
2022/03/18 11:33:29;;;;;;;30.70;14.90;;;;;;;7.13;37.18;100891.23;107747;1285;22557;-86